KBDL/BDL METAR and TAF weather

Enter ICAO airport designator
Station Type Date Time Source
KBDL METAR 2021/05/10 02:27 UTC NOAA

KBDL 100227Z 17003KT 10SM -RA BKN010 BKN060 OVC070 09/07 A2994 RMK AO2 RAE07B27 PCPN VRY LGT P0000 T00940072


Station Type Date Time Source
KBDL Decoded METAR 2021/05/10 02:27 UTC NOAA

BRADLEY INTERNATIONAL AIRPORT , CT, United States (KBDL) 41-56N 072-41W 60M
May 09, 2021 - 10:27 PM EDT / 2021.05.10 0227 UTC
Wind: from the S (170 degrees) at 3 MPH (3 KT):0
Visibility: 10 mile(s):0
Sky conditions: overcast
Weather: light rain
Precipitation last hour: A trace
Temperature: 48.9 F (9.4 C)
Dew Point: 45.0 F (7.2 C)
Relative Humidity: 86%
Pressure (altimeter): 29.94 in. Hg (1013 hPa)
ob: KBDL 100227Z 17003KT 10SM -RA BKN010 BKN060 OVC070 09/07 A2994 RMK AO2 RAE07B27 PCPN VRY LGT P0000 T00940072
cycle: 2

Station Type Date Time Source
KBDL TAF 2021/05/10 02:24 UTC NOAA

TAF
AMD KBDL 100221Z 1002/1106 21008KT P6SM -RA OVC060
FM100400 10004KT 3SM -RA BR OVC012
FM100600 03005KT 3SM -RA BR OVC008
FM101100 36006KT P6SM BKN012
FM101500 33005KT P6SM BKN025
FM101800 30005KT P6SM SCT050

Example: see airport list